Gilmore, AR (72339)

4:42 PM CST on February 05, 2016 (GMT -0600)
River Trace | | Change Station
CLOSE
Current Station
Personal Weather Station
Location: Marion, AR
Elevation: 217 ft
Nearby Weather Stations

Elev 217 ft 35.21 °N, 90.18 °W | Updated 13 minutes ago

Partly Cloudy
Partly Cloudy
53.2 °F
Feels Like 53.2 °F
N
0.0
Wind Variable Wind from NNE

Today
High -- | Low -- °F
--% Chance of Precip.
Yesterday
High -- | Low -- °F
Precip. -- in
Pressure 30.40 in
Visibility 10.0 miles
Clouds Clear
Dew Point 20 °F
Humidity 27%
Rainfall 0.00 in
Snow Depth Not available.
6:57 AM 5:32 PM
Waning Crescent, 9% visible
METAR KAWM 052153Z AUTO VRB03KT 10SM CLR 11/M05 A3040 RMK AO2 SLP295 T01111050
Pressure 30.40 in
Visibility 10.0 miles
Clouds Clear
Dew Point 20 °F
Humidity 27%
Rainfall 0.00 in
Snow Depth Not available.
6:57 AM 5:32 PM
Waning Crescent, 9% visible
METAR KAWM 052153Z AUTO VRB03KT 10SM CLR 11/M05 A3040 RMK AO2 SLP295 T01111050

10-Day Weather Forecast

Almanac

Astronomy

Feb. 05, 2016 Rise Set
Actual Time
Civil Twilight
Nautical Twilight
Astronomical Twilight
Moon
Length of Visible Light
Length of Day
Tomorrow will be .
, % of the Moon is Illuminated

Today's Extremes

State Highs State Lows

Community

WunderPhotos

Upload Photos

1,890,875 photos uploaded!

WunderBlog® & News

Nearby

Air Quality

  Air Quality AQ Index Pollutant
Not available.

Snow Depth

Station Depth Elevation

Earthquake Activity

City Distance Mag. Time & Date
Minimum magnitude displayed is 2.5.

Coastal Water Temperatures

Place Temperature

Stations

Nearby Weather Stations

Station Location Temp. Windchill Dew Point Humidity Wind Precip. Elev Updated Type
                   

Watches & Warnings

There are currently no watches in effect.